< < Back
Terminal Aerodrome Forecast


Current Version              Previous Versions:   1  2  3  4  5  6  7  8  9  

Terminal Aerodrome Forecast

352
FTUS42 KTAE 181700
TAFABY
TAF
KABY 181722Z 1818/1918 30003KT P6SM SCT100 BKN250=

Latest METAR

556
SAUS70 KWBC 191300 RRH
MTRABY
METAR KABY 191253Z 00000KT 10SM CLR 04/03 A3018 RMK AO2 SLP221
T00440028


USA.gov is the U.S. government's official web portal to all federal, state and local government web resources and services.